Time;durP1;ratioP1;P1;durP2;ratioP2;P2;SDS_P1;SDS_P2;PMS_P1;PMS_P2;Temp;Humidity;BMP_temperature;BMP_pressure;BME280_temperature;BME280_humidity;BME280_pressure;Samples;Min_cycle;Max_cycle;Signal;HPM_P1;HPM_P2
2023/08/31 00:01:37;;;;;;;87.93;61.50;;;26.50;99.90;;;;;;5033078;28;20033;-64
2023/08/31 00:04:05;;;;;;;98.38;61.90;;;26.50;99.90;;;;;;5032585;28;20493;-64
2023/08/31 00:06:32;;;;;;;91.55;65.68;;;26.60;99.90;;;;;;5046557;28;20104;-64
2023/08/31 00:08:58;;;;;;;99.40;65.80;;;26.60;99.90;;;;;;5036492;28;20106;-64
2023/08/31 00:11:25;;;;;;;93.25;65.93;;;26.70;99.90;;;;;;5053245;28;20079;-64
2023/08/31 00:13:52;;;;;;;105.03;62.88;;;26.80;99.90;;;;;;5045311;28;20494;-63
2023/08/31 00:16:26;;;;;;;212.55;191.43;;;26.80;99.90;;;;;;5044962;28;20033;-63
2023/08/31 00:18:52;;;;;;;408.02;365.73;;;26.90;99.90;;;;;;5037041;28;20025;-65
2023/08/31 00:21:22;;;;;;;363.88;327.45;;;26.90;99.90;;;;;;5033582;28;20108;-66
2023/08/31 00:23:49;;;;;;;344.55;310.20;;;27.00;99.90;;;;;;5033446;28;20026;-66
2023/08/31 00:26:15;;;;;;;304.23;274.25;;;26.90;99.90;;;;;;5033354;28;20022;-66
2023/08/31 00:28:44;;;;;;;300.80;270.85;;;26.90;99.90;;;;;;5048293;28;20017;-66
2023/08/31 00:31:10;;;;;;;274.85;248.73;;;26.90;99.90;;;;;;5034519;28;20164;-65
2023/08/31 00:33:38;;;;;;;280.40;253.48;;;27.00;99.90;;;;;;5039176;28;20013;-67
2023/08/31 00:36:05;;;;;;;297.33;268.73;;;27.00;99.90;;;;;;5041283;28;20029;-66
2023/08/31 00:38:32;;;;;;;295.42;266.45;;;27.10;99.90;;;;;;5022167;28;20022;-65
2023/08/31 00:40:59;;;;;;;285.83;258.65;;;27.20;99.90;;;;;;5033100;28;20052;-66
2023/08/31 00:43:25;;;;;;;238.02;214.65;;;27.20;99.90;;;;;;5048495;28;20038;-66
2023/08/31 00:45:59;;;;;;;250.57;226.35;;;27.30;99.90;;;;;;5033025;28;20025;-66
2023/08/31 00:48:26;;;;;;;221.95;200.77;;;27.30;99.90;;;;;;5033012;28;20025;-65
2023/08/31 00:50:53;;;;;;;222.88;201.30;;;27.40;99.90;;;;;;5033312;28;20056;-66
2023/08/31 00:53:19;;;;;;;300.55;268.90;;;27.50;99.90;;;;;;5013384;28;20014;-65
2023/08/31 00:55:47;;;;;;;228.75;206.82;;;27.50;99.90;;;;;;5013255;28;20025;-66
2023/08/31 00:58:14;;;;;;;190.63;171.80;;;27.60;99.90;;;;;;5035098;28;20104;-66
2023/08/31 01:00:52;;;;;;;217.35;195.88;;;27.70;99.90;;;;;;5039949;28;20036;-66
2023/08/31 01:03:27;;;;;;;205.48;185.65;;;27.70;99.90;;;;;;5024299;28;20106;-65
2023/08/31 01:06:04;;;;;;;217.40;196.20;;;27.80;99.90;;;;;;5048862;28;20025;-65
2023/08/31 01:08:31;;;;;;;213.65;192.93;;;27.80;99.90;;;;;;5040269;28;20128;-63
2023/08/31 01:11:26;;;;;;;182.13;164.15;;;27.90;99.90;;;;;;5034664;28;20290;-64
2023/08/31 01:14:03;;;;;;;290.10;261.33;;;28.00;99.90;;;;;;5021237;28;20084;-65
2023/08/31 01:16:32;;;;;;;226.23;203.98;;;28.00;99.90;;;;;;5036635;28;20033;-66
2023/08/31 01:19:06;;;;;;;194.48;175.02;;;28.00;99.90;;;;;;5036772;28;20091;-66
2023/08/31 01:21:40;;;;;;;206.38;186.52;;;28.10;99.90;;;;;;5037576;28;20040;-66
2023/08/31 01:24:08;;;;;;;210.98;190.32;;;28.20;99.90;;;;;;5038662;28;20021;-66
2023/08/31 01:26:35;;;;;;;193.05;174.32;;;28.20;99.90;;;;;;5036452;28;20017;-66
2023/08/31 01:29:02;;;;;;;188.60;170.32;;;28.30;99.90;;;;;;5039472;28;20084;-65
2023/08/31 01:31:29;;;;;;;210.48;190.10;;;28.30;99.90;;;;;;5037164;28;20014;-65
2023/08/31 01:33:55;;;;;;;200.85;181.45;;;28.40;99.90;;;;;;5036174;28;20060;-68
2023/08/31 01:36:30;;;;;;;200.05;181.15;;;28.40;99.90;;;;;;5035937;28;20032;-67
2023/08/31 01:39:43;;;;;;;190.70;171.98;;;28.50;99.90;;;;;;5035970;28;20028;-66
2023/08/31 01:42:13;;;;;;;199.20;181.25;;;28.50;99.90;;;;;;5037552;28;20041;-66
2023/08/31 01:44:42;;;;;;;190.02;172.07;;;28.60;99.90;;;;;;5033883;28;20030;-65
2023/08/31 01:47:09;;;;;;;216.52;196.68;;;28.60;99.90;;;;;;5037107;28;20026;-66
2023/08/31 01:49:39;;;;;;;219.57;199.52;;;28.60;99.90;;;;;;5028723;28;20026;-66
2023/08/31 01:52:07;;;;;;;201.20;181.98;;;28.70;99.90;;;;;;5030078;28;20024;-67
2023/08/31 01:54:34;;;;;;;233.20;211.30;;;28.70;99.90;;;;;;5038329;28;20108;-69
2023/08/31 01:57:00;;;;;;;213.88;194.25;;;28.70;99.90;;;;;;5036221;28;20029;-67
2023/08/31 01:59:27;;;;;;;211.50;192.13;;;28.70;99.90;;;;;;5036438;28;20026;-66
2023/08/31 02:01:53;;;;;;;245.95;223.52;;;28.80;99.90;;;;;;5023473;28;20443;-67
2023/08/31 02:04:20;;;;;;;253.23;230.45;;;28.90;99.90;;;;;;5033533;28;20093;-68
2023/08/31 02:06:47;;;;;;;289.95;261.13;;;29.10;99.90;;;;;;5035653;28;20028;-67
2023/08/31 02:09:15;;;;;;;388.83;348.45;;;29.20;99.90;;;;;;5035637;28;20023;-70
2023/08/31 02:11:41;;;;;;;454.92;409.73;;;29.30;99.90;;;;;;5025222;28;20025;-66
2023/08/31 02:14:08;;;;;;;546.85;492.67;;;29.30;99.90;;;;;;5025545;28;20058;-67
2023/08/31 02:16:35;;;;;;;407.60;366.40;;;29.50;99.90;;;;;;5034896;28;20466;-66
2023/08/31 02:19:01;;;;;;;496.60;448.17;;;29.50;99.90;;;;;;5037600;28;20087;-67
2023/08/31 02:21:28;;;;;;;840.67;760.65;;;29.60;99.90;;;;;;5036476;28;20082;-67
2023/08/31 02:23:54;;;;;;;1188.40;999.90;;;29.70;99.90;;;;;;5043316;28;20478;-67
2023/08/31 02:26:22;;;;;;;1093.03;986.22;;;29.70;99.90;;;;;;5043299;28;20021;-67
2023/08/31 02:28:48;;;;;;;932.97;842.75;;;29.80;99.90;;;;;;5036595;28;20022;-70
2023/08/31 02:31:17;;;;;;;819.08;740.90;;;29.90;99.90;;;;;;5032882;28;20032;-70
2023/08/31 02:33:43;;;;;;;1100.60;990.65;;;29.90;99.90;;;;;;5031157;28;20025;-71
2023/08/31 02:36:09;;;;;;;1338.07;999.90;;;29.90;99.90;;;;;;5028296;28;20024;-70
2023/08/31 02:38:36;;;;;;;1280.30;999.90;;;29.90;99.90;;;;;;5029601;28;20075;-71
2023/08/31 02:41:03;;;;;;;1050.25;946.47;;;29.90;99.90;;;;;;5031112;28;20018;-70
2023/08/31 02:43:30;;;;;;;546.95;490.92;;;30.00;99.90;;;;;;5031080;28;20124;-69
2023/08/31 02:46:03;;;;;;;618.42;556.58;;;30.00;99.90;;;;;;5030745;28;20425;-69
2023/08/31 02:48:32;;;;;;;1304.13;999.90;;;30.00;99.90;;;;;;5035988;28;20024;-68
2023/08/31 02:51:02;;;;;;;1044.80;939.42;;;30.10;99.90;;;;;;5035293;28;20116;-70
2023/08/31 02:53:32;;;;;;;1051.82;947.28;;;30.10;99.90;;;;;;5035216;28;20049;-68
2023/08/31 02:55:59;;;;;;;638.15;575.58;;;30.10;99.90;;;;;;5033234;28;20063;-69
2023/08/31 02:58:25;;;;;;;625.05;563.25;;;30.20;99.90;;;;;;5033686;28;20065;-69
2023/08/31 03:00:53;;;;;;;568.30;511.67;;;30.20;99.90;;;;;;5031908;28;20021;-69
2023/08/31 03:03:19;;;;;;;542.40;487.67;;;30.40;99.90;;;;;;5032691;28;20067;-69
2023/08/31 03:05:46;;;;;;;565.15;509.40;;;30.40;99.90;;;;;;5032918;28;20025;-68
2023/08/31 03:08:13;;;;;;;541.00;486.77;;;30.50;99.90;;;;;;5032982;28;20425;-68
2023/08/31 03:10:40;;;;;;;255.30;232.38;;;30.60;99.90;;;;;;5031981;28;20104;-67
2023/08/31 03:13:07;;;;;;;247.05;224.40;;;30.70;99.90;;;;;;5030676;28;20021;-66
2023/08/31 03:15:34;;;;;;;292.02;263.90;;;30.70;99.90;;;;;;5031163;28;20040;-66
2023/08/31 03:18:01;;;;;;;252.60;229.07;;;30.70;99.90;;;;;;5033857;28;20344;-67
2023/08/31 03:20:27;;;;;;;300.30;271.58;;;30.70;99.90;;;;;;5028509;28;20036;-66
2023/08/31 03:22:54;;;;;;;248.07;225.50;;;30.80;99.90;;;;;;5031505;28;20033;-66
2023/08/31 03:25:20;;;;;;;311.30;280.40;;;30.80;99.90;;;;;;5033559;28;20021;-66
2023/08/31 03:27:47;;;;;;;284.55;256.50;;;30.80;99.90;;;;;;5030592;28;20045;-65
2023/08/31 03:30:14;;;;;;;277.10;251.48;;;30.90;99.90;;;;;;5031867;28;20017;-66
2023/08/31 03:32:40;;;;;;;274.27;248.95;;;30.90;99.90;;;;;;5025733;28;20079;-66
2023/08/31 03:35:07;;;;;;;278.75;252.95;;;31.00;99.90;;;;;;5030774;28;20037;-68
2023/08/31 03:37:34;;;;;;;240.63;218.60;;;31.10;99.90;;;;;;5031288;28;20026;-66
2023/08/31 03:40:00;;;;;;;268.33;243.60;;;31.10;99.90;;;;;;5021885;28;20025;-68
2023/08/31 03:42:27;;;;;;;263.08;238.95;;;31.10;99.90;;;;;;5030997;28;20021;-65
2023/08/31 03:44:53;;;;;;;252.68;229.85;;;31.10;99.90;;;;;;5034378;28;20053;-67
2023/08/31 03:47:20;;;;;;;269.77;245.23;;;31.10;99.90;;;;;;5032690;28;20025;-67
2023/08/31 03:49:46;;;;;;;264.40;240.38;;;31.20;99.90;;;;;;5033772;28;20071;-67
2023/08/31 03:52:13;;;;;;;284.23;258.10;;;31.30;99.90;;;;;;5034413;28;20378;-67
2023/08/31 03:54:39;;;;;;;268.23;243.13;;;31.20;99.90;;;;;;5032283;28;20100;-69
2023/08/31 03:57:06;;;;;;;281.50;255.02;;;31.30;99.90;;;;;;5033549;28;20101;-69
2023/08/31 03:59:33;;;;;;;288.75;261.83;;;31.30;99.90;;;;;;5033543;28;20508;-72
2023/08/31 04:02:00;;;;;;;284.00;257.25;;;31.30;99.90;;;;;;5031356;28;20048;-65
2023/08/31 04:04:26;;;;;;;288.55;261.75;;;31.40;99.90;;;;;;5027045;28;20032;-67
2023/08/31 04:06:53;;;;;;;255.93;230.85;;;31.40;99.90;;;;;;5030082;28;20024;-70
2023/08/31 04:09:19;;;;;;;327.90;295.80;;;31.50;99.90;;;;;;5031080;28;20025;-68
2023/08/31 04:11:46;;;;;;;302.10;272.20;;;31.60;99.90;;;;;;5027410;28;20017;-66
2023/08/31 04:14:13;;;;;;;274.65;247.73;;;31.60;99.90;;;;;;5031262;28;20109;-68
2023/08/31 04:16:39;;;;;;;286.20;259.30;;;31.60;99.90;;;;;;5030696;28;20025;-68
2023/08/31 04:19:06;;;;;;;276.92;250.20;;;31.70;99.90;;;;;;5027750;28;20360;-69
2023/08/31 04:21:32;;;;;;;242.18;219.75;;;31.70;99.90;;;;;;5022427;28;20438;-66
2023/08/31 04:24:00;;;;;;;247.73;221.95;;;31.60;99.90;;;;;;5031271;28;20029;-67
2023/08/31 04:26:27;;;;;;;240.27;218.57;;;31.60;99.90;;;;;;5021180;28;20041;-67
2023/08/31 04:28:54;;;;;;;258.52;233.98;;;31.60;99.90;;;;;;5046320;28;20338;-66
2023/08/31 04:31:21;;;;;;;321.50;289.77;;;31.70;99.90;;;;;;5029527;28;20022;-67
2023/08/31 04:33:48;;;;;;;278.38;252.38;;;31.70;99.90;;;;;;5032903;28;20227;-67
2023/08/31 04:36:14;;;;;;;272.92;246.57;;;31.70;99.90;;;;;;5032434;28;20097;-72
2023/08/31 04:38:41;;;;;;;308.30;278.20;;;31.70;99.90;;;;;;5032614;28;20378;-67
2023/08/31 04:41:08;;;;;;;272.52;246.68;;;31.80;99.90;;;;;;5029555;28;20087;-66
2023/08/31 04:43:34;;;;;;;282.55;255.10;;;31.70;99.90;;;;;;5024886;28;20037;-65
2023/08/31 04:46:03;;;;;;;253.77;231.07;;;31.70;99.90;;;;;;5032300;28;20045;-68
2023/08/31 04:48:30;;;;;;;275.58;249.82;;;31.80;99.90;;;;;;5026334;28;20018;-68
2023/08/31 04:50:57;;;;;;;257.13;233.57;;;31.80;99.90;;;;;;5026464;28;20051;-66
2023/08/31 04:53:24;;;;;;;261.45;237.38;;;31.80;99.90;;;;;;5032495;28;20441;-66
2023/08/31 04:55:51;;;;;;;250.80;227.77;;;31.90;99.90;;;;;;5033506;28;20064;-67
2023/08/31 04:58:17;;;;;;;277.08;251.93;;;32.00;99.90;;;;;;5029536;28;20425;-69
2023/08/31 05:00:44;;;;;;;262.38;238.48;;;32.10;99.90;;;;;;5032074;28;20021;-69
2023/08/31 05:03:11;;;;;;;248.98;226.43;;;32.10;99.90;;;;;;5036693;28;20096;-71
2023/08/31 05:05:37;;;;;;;230.90;209.93;;;32.10;99.90;;;;;;5030196;28;20513;-66
2023/08/31 05:08:04;;;;;;;285.67;258.40;;;32.20;99.90;;;;;;5032779;28;20421;-68
2023/08/31 05:10:31;;;;;;;263.30;239.07;;;32.20;99.90;;;;;;5034490;28;20009;-69
2023/08/31 05:12:57;;;;;;;259.17;235.20;;;32.10;99.90;;;;;;5033781;28;20045;-69
2023/08/31 05:15:27;;;;;;;243.85;221.60;;;32.20;99.90;;;;;;5033415;28;20052;-66
2023/08/31 05:17:54;;;;;;;230.82;210.18;;;32.10;99.90;;;;;;5022174;28;20095;-67
2023/08/31 05:20:23;;;;;;;232.38;210.45;;;32.10;99.90;;;;;;5021197;28;20029;-67
2023/08/31 05:22:50;;;;;;;241.52;219.88;;;32.10;99.90;;;;;;5028250;28;20108;-68
2023/08/31 05:25:17;;;;;;;246.70;224.55;;;32.10;99.90;;;;;;5020314;28;20036;-66
2023/08/31 05:27:44;;;;;;;232.48;211.85;;;32.10;99.90;;;;;;5016081;28;20459;-67
2023/08/31 05:30:11;;;;;;;232.88;212.27;;;32.20;99.90;;;;;;5025583;28;20030;-67
2023/08/31 05:32:38;;;;;;;237.32;215.73;;;32.20;99.90;;;;;;5029589;28;20076;-68
2023/08/31 05:35:05;;;;;;;201.82;183.55;;;32.20;99.90;;;;;;5023377;28;20022;-68
2023/08/31 05:37:35;;;;;;;208.85;189.73;;;32.10;99.90;;;;;;5027217;28;20044;-67
2023/08/31 05:40:06;;;;;;;228.48;206.43;;;32.10;99.90;;;;;;5023760;28;20030;-69
2023/08/31 05:42:33;;;;;;;215.07;195.60;;;32.10;99.90;;;;;;5026253;28;20459;-67
2023/08/31 05:45:00;;;;;;;199.48;181.52;;;32.20;99.90;;;;;;5025203;28;20073;-69
2023/08/31 05:47:27;;;;;;;196.15;178.93;;;32.20;99.90;;;;;;5028463;28;20112;-70
2023/08/31 05:49:53;;;;;;;195.20;178.10;;;32.30;99.90;;;;;;5030591;28;20289;-70
2023/08/31 05:52:20;;;;;;;179.45;163.15;;;32.50;99.90;;;;;;5036408;28;20064;-71
2023/08/31 05:54:46;;;;;;;169.13;153.68;;;32.60;99.90;;;;;;5025817;28;20022;-72
2023/08/31 05:57:13;;;;;;;176.00;159.73;;;32.70;99.90;;;;;;5025932;28;20025;-71
2023/08/31 05:59:39;;;;;;;215.35;196.40;;;32.70;99.90;;;;;;5024888;28;20044;-71
2023/08/31 06:02:08;;;;;;;180.15;164.10;;;32.80;99.90;;;;;;5024133;28;20541;-72
2023/08/31 06:04:34;;;;;;;184.23;167.98;;;32.90;99.90;;;;;;5027074;28;20417;-73
2023/08/31 06:07:01;;;;;;;211.43;192.15;;;33.00;99.90;;;;;;5025798;28;20026;-76
2023/08/31 06:09:27;;;;;;;212.05;192.82;;;33.00;99.90;;;;;;5026386;28;20070;-73
2023/08/31 06:11:54;;;;;;;194.77;177.15;;;32.90;99.90;;;;;;5033878;28;20570;-71
2023/08/31 06:14:20;;;;;;;198.57;180.85;;;32.90;99.90;;;;;;5027899;28;20356;-71
2023/08/31 06:16:47;;;;;;;203.77;184.85;;;32.90;99.90;;;;;;5022020;28;20598;-74
2023/08/31 06:19:16;;;;;;;174.63;158.73;;;32.90;99.80;;;;;;5020683;28;20029;-72
2023/08/31 06:21:43;;;;;;;185.13;167.85;;;32.80;99.80;;;;;;5032326;28;20033;-72
2023/08/31 06:24:12;;;;;;;173.88;157.85;;;32.70;99.90;;;;;;5034338;28;20053;-71
2023/08/31 06:26:39;;;;;;;174.93;158.27;;;32.70;99.90;;;;;;5034759;28;20045;-68
2023/08/31 06:29:07;;;;;;;184.77;167.73;;;32.70;99.90;;;;;;5034270;28;20021;-67
2023/08/31 06:31:34;;;;;;;177.05;161.18;;;32.70;99.90;;;;;;5033638;28;20411;-66
2023/08/31 06:34:02;;;;;;;162.10;148.00;;;32.70;99.90;;;;;;5026544;28;20101;-69
2023/08/31 06:36:28;;;;;;;181.70;165.25;;;32.80;99.90;;;;;;5015823;28;20038;-67
2023/08/31 06:38:55;;;;;;;190.30;173.45;;;32.80;99.90;;;;;;5015500;28;20542;-67
2023/08/31 06:41:21;;;;;;;176.32;160.02;;;32.90;99.90;;;;;;5015777;28;20025;-68
2023/08/31 06:43:48;;;;;;;195.75;177.75;;;33.00;99.90;;;;;;5015263;28;20064;-68
2023/08/31 06:46:14;;;;;;;179.45;163.00;;;33.00;99.90;;;;;;5015465;28;20014;-68
2023/08/31 06:48:41;;;;;;;177.70;161.25;;;33.00;99.90;;;;;;5014796;28;20030;-68
2023/08/31 06:51:07;;;;;;;199.38;181.27;;;33.10;99.90;;;;;;5020150;28;20052;-68
2023/08/31 06:53:34;;;;;;;196.20;178.13;;;33.10;99.90;;;;;;5033363;28;20029;-67
2023/08/31 06:56:00;;;;;;;193.68;175.90;;;33.10;99.80;;;;;;5017377;28;20097;-67
2023/08/31 06:58:27;;;;;;;177.57;161.73;;;33.10;99.80;;;;;;5021698;28;20078;-68
2023/08/31 07:00:53;;;;;;;208.93;189.07;;;33.10;99.50;;;;;;5034884;28;20075;-68
2023/08/31 07:03:20;;;;;;;180.95;164.25;;;33.10;99.60;;;;;;5035429;28;20394;-68
2023/08/31 07:05:46;;;;;;;189.77;173.05;;;33.20;99.90;;;;;;5035181;28;20021;-68
2023/08/31 07:08:13;;;;;;;197.05;179.57;;;33.20;99.90;;;;;;5034883;28;20032;-67
2023/08/31 07:10:39;;;;;;;191.57;173.57;;;33.10;99.90;;;;;;5034910;28;20467;-68
2023/08/31 07:13:06;;;;;;;197.15;179.65;;;33.20;99.90;;;;;;5034832;28;20441;-67
2023/08/31 07:15:34;;;;;;;152.77;138.93;;;33.20;99.80;;;;;;5034112;28;20048;-67
2023/08/31 07:18:01;;;;;;;161.43;146.90;;;33.20;99.50;;;;;;5034669;28;20159;-67
2023/08/31 07:20:27;;;;;;;153.98;140.10;;;33.30;99.10;;;;;;5034774;28;20025;-67
2023/08/31 07:22:54;;;;;;;166.95;151.45;;;33.30;98.70;;;;;;5034529;28;20029;-67
2023/08/31 07:25:21;;;;;;;169.60;153.52;;;33.30;98.40;;;;;;5034633;28;20033;-68
2023/08/31 07:27:47;;;;;;;187.07;168.18;;;33.40;98.70;;;;;;5034598;28;20033;-67
2023/08/31 07:30:14;;;;;;;177.95;160.73;;;33.40;98.70;;;;;;5034580;28;20026;-67
2023/08/31 07:32:40;;;;;;;186.77;168.73;;;33.50;98.80;;;;;;5034431;28;20072;-67
2023/08/31 07:35:07;;;;;;;193.48;175.35;;;33.50;98.60;;;;;;5034392;28;20017;-66
2023/08/31 07:37:35;;;;;;;209.45;190.25;;;33.50;98.70;;;;;;5034360;28;20022;-67
2023/08/31 07:40:01;;;;;;;201.00;182.40;;;33.50;98.70;;;;;;5022236;28;20061;-68
2023/08/31 07:42:29;;;;;;;169.30;152.15;;;33.50;98.40;;;;;;5022849;28;20033;-67
2023/08/31 07:44:55;;;;;;;168.88;153.25;;;33.40;97.90;;;;;;5033966;28;20124;-65
2023/08/31 07:47:22;;;;;;;206.75;187.30;;;33.40;98.40;;;;;;5034084;28;20075;-67
2023/08/31 07:49:48;;;;;;;219.90;199.13;;;33.40;98.50;;;;;;5026526;28;20025;-66
2023/08/31 07:52:15;;;;;;;231.40;208.55;;;33.40;97.90;;;;;;5030471;28;20100;-67
2023/08/31 07:54:42;;;;;;;218.82;198.23;;;33.40;97.80;;;;;;5034103;28;20026;-67
2023/08/31 07:57:09;;;;;;;201.70;182.63;;;33.30;97.60;;;;;;5034221;28;20036;-67
2023/08/31 07:59:35;;;;;;;223.15;202.15;;;33.30;98.30;;;;;;5034017;28;20026;-67
2023/08/31 08:02:02;;;;;;;232.23;211.15;;;33.40;98.10;;;;;;5033669;28;20029;-67
2023/08/31 08:04:29;;;;;;;224.43;204.38;;;33.40;97.90;;;;;;5033778;28;20092;-69
2023/08/31 08:06:56;;;;;;;215.88;196.38;;;33.40;97.90;;;;;;5033836;28;20020;-69
2023/08/31 08:09:22;;;;;;;217.60;197.13;;;33.50;97.50;;;;;;5033183;28;20028;-71
2023/08/31 08:11:49;;;;;;;141.05;127.80;;;33.50;97.90;;;;;;5033551;28;20017;-69
2023/08/31 08:14:15;;;;;;;129.27;117.75;;;33.50;97.70;;;;;;5033788;28;20107;-69
2023/08/31 08:16:42;;;;;;;128.88;116.53;;;33.50;97.50;;;;;;5033382;28;20025;-69
2023/08/31 08:19:09;;;;;;;127.82;115.50;;;33.40;96.90;;;;;;5034145;28;20174;-68
2023/08/31 08:21:35;;;;;;;73.18;63.53;;;33.30;96.40;;;;;;5032796;28;20021;-66
2023/08/31 08:24:02;;;;;;;83.47;70.03;;;33.40;96.50;;;;;;5031582;28;20022;-67
2023/08/31 08:26:29;;;;;;;82.43;74.15;;;33.40;96.90;;;;;;5032639;28;20040;-67
2023/08/31 08:28:56;;;;;;;92.05;82.72;;;33.40;97.20;;;;;;5033254;28;20018;-68
2023/08/31 08:31:22;;;;;;;76.50;68.65;;;33.30;96.70;;;;;;5031518;28;20474;-67
2023/08/31 08:33:49;;;;;;;94.10;83.78;;;33.30;96.70;;;;;;5032677;28;20014;-67
2023/08/31 08:36:16;;;;;;;91.55;82.10;;;33.30;96.90;;;;;;5032774;28;20024;-66
2023/08/31 08:38:42;;;;;;;94.82;84.93;;;33.40;96.40;;;;;;5031183;28;20407;-66
2023/08/31 08:41:09;;;;;;;95.22;82.57;;;33.50;96.60;;;;;;5032846;28;20104;-67
2023/08/31 08:43:37;;;;;;;96.18;85.53;;;33.60;96.20;;;;;;5022740;28;20487;-67
2023/08/31 08:46:06;;;;;;;83.75;71.80;;;33.60;96.20;;;;;;5028157;28;20056;-66
2023/08/31 08:48:36;;;;;;;105.43;94.25;;;33.60;95.20;;;;;;5030811;28;20025;-67
2023/08/31 08:51:04;;;;;;;89.07;77.50;;;33.60;95.90;;;;;;5025059;28;20022;-66
2023/08/31 08:53:31;;;;;;;103.53;87.93;;;33.60;95.50;;;;;;5032615;28;20531;-67
2023/08/31 08:55:58;;;;;;;104.65;91.03;;;33.50;94.90;;;;;;5032789;28;20017;-67
2023/08/31 08:58:25;;;;;;;91.57;72.03;;;33.50;94.90;;;;;;5032674;28;20024;-68
2023/08/31 09:00:55;;;;;;;99.97;85.57;;;33.50;94.90;;;;;;5032496;28;20040;-67
2023/08/31 09:03:21;;;;;;;93.30;77.95;;;33.40;94.80;;;;;;5021964;28;20471;-67
2023/08/31 09:05:48;;;;;;;98.22;87.43;;;33.50;94.50;;;;;;5032581;28;20029;-67
2023/08/31 09:08:15;;;;;;;94.75;84.30;;;33.50;95.00;;;;;;5032475;28;20022;-67
2023/08/31 09:10:44;;;;;;;81.72;66.35;;;33.40;94.70;;;;;;5030940;28;20100;-67
2023/08/31 09:13:18;;;;;;;92.00;78.13;;;33.40;95.40;;;;;;5030326;28;20390;-66
2023/08/31 09:15:48;;;;;;;75.75;60.22;;;33.50;95.20;;;;;;5030157;28;20025;-68
2023/08/31 09:18:25;;;;;;;100.18;77.82;;;33.50;94.60;;;;;;5032586;28;20017;-66
2023/08/31 09:20:52;;;;;;;100.80;79.55;;;33.50;94.60;;;;;;5029042;28;20101;-67
2023/08/31 09:23:20;;;;;;;87.35;70.20;;;33.50;94.50;;;;;;5036449;28;20149;-66
2023/08/31 09:25:53;;;;;;;103.88;74.18;;;33.50;94.60;;;;;;5025347;28;20032;-66
2023/08/31 09:28:22;;;;;;;95.10;78.47;;;33.50;94.40;;;;;;5034813;28;20100;-67
2023/08/31 09:30:52;;;;;;;89.28;76.05;;;33.50;95.00;;;;;;5035279;28;20026;-64
2023/08/31 09:33:20;;;;;;;85.45;72.65;;;33.50;95.20;;;;;;5036279;28;20013;-65
2023/08/31 09:35:49;;;;;;;115.55;88.05;;;33.50;95.00;;;;;;5034130;28;20040;-65
2023/08/31 09:38:16;;;;;;;90.07;66.45;;;33.60;94.90;;;;;;5032905;28;20025;-65
2023/08/31 09:40:43;;;;;;;85.20;68.28;;;33.50;94.70;;;;;;5036012;28;20033;-66
2023/08/31 09:43:09;;;;;;;99.00;71.88;;;33.50;94.70;;;;;;5036390;28;20470;-67
2023/08/31 09:45:37;;;;;;;84.15;70.78;;;33.50;95.60;;;;;;5036320;28;20022;-67
2023/08/31 09:48:05;;;;;;;82.72;56.25;;;33.50;95.20;;;;;;5036415;28;20076;-67
2023/08/31 09:50:34;;;;;;;87.10;62.63;;;33.50;95.40;;;;;;5036180;28;20079;-65
2023/08/31 09:53:05;;;;;;;79.57;70.97;;;33.50;95.50;;;;;;5028110;28;20040;-65
2023/08/31 09:55:32;;;;;;;81.43;71.75;;;33.40;95.40;;;;;;5026136;28;20121;-68
2023/08/31 09:58:01;;;;;;;46.83;32.00;;;33.50;95.80;;;;;;5017454;28;20033;-66
2023/08/31 10:00:29;;;;;;;45.22;30.42;;;33.40;95.00;;;;;;5016417;28;20065;-69
2023/08/31 10:03:00;;;;;;;59.35;30.48;;;33.40;95.40;;;;;;5016311;28;20476;-68
2023/08/31 10:05:27;;;;;;;52.03;30.83;;;33.40;95.10;;;;;;5016298;28;20026;-66
2023/08/31 10:07:54;;;;;;;48.33;29.48;;;33.30;95.50;;;;;;5016336;28;20022;-68
2023/08/31 10:10:25;;;;;;;62.85;38.50;;;33.30;95.40;;;;;;5016023;28;20029;-67
2023/08/31 10:12:52;;;;;;;446.17;269.58;;;33.30;95.70;;;;;;5016298;28;20022;-67
2023/08/31 10:15:19;;;;;;;698.35;365.13;;;33.30;95.70;;;;;;5016041;28;20441;-67
2023/08/31 10:17:46;;;;;;;792.67;448.45;;;33.20;95.60;;;;;;5015618;28;20179;-67
2023/08/31 10:20:16;;;;;;;271.83;129.35;;;33.20;95.40;;;;;;5022833;28;20022;-66
2023/08/31 10:22:43;;;;;;;260.88;106.57;;;33.10;95.70;;;;;;5021398;28;20029;-65
2023/08/31 10:25:11;;;;;;;142.35;57.47;;;33.00;96.40;;;;;;5025604;28;20026;-65
2023/08/31 10:27:45;;;;;;;147.63;61.50;;;32.90;95.60;;;;;;5051644;28;20033;-66
2023/08/31 10:30:22;;;;;;;119.00;46.78;;;32.80;96.00;;;;;;5055488;28;20378;-67
2023/08/31 10:33:10;;;;;;;148.38;53.90;;;32.70;95.70;;;;;;5054801;28;20394;-68
2023/08/31 10:35:53;;;;;;;60.95;31.23;;;32.60;95.60;;;;;;5055405;28;20044;-67
2023/08/31 10:38:33;;;;;;;46.33;26.17;;;32.50;95.80;;;;;;5055307;28;20391;-66
2023/08/31 10:41:08;;;;;;;56.55;30.70;;;32.50;95.70;;;;;;5027348;28;20037;-66
2023/08/31 10:43:50;;;;;;;59.85;30.33;;;32.40;96.60;;;;;;5015538;28;20121;-68
2023/08/31 10:46:32;;;;;;;50.22;27.05;;;32.30;96.40;;;;;;5015394;28;20054;-68
2023/08/31 10:49:14;;;;;;;63.00;30.40;;;32.30;96.60;;;;;;5015532;28;20109;-68
2023/08/31 10:51:54;;;;;;;58.30;31.48;;;32.30;96.80;;;;;;5015479;28;20030;-68
2023/08/31 10:54:34;;;;;;;87.43;35.00;;;32.20;97.00;;;;;;5019278;28;20038;-68
2023/08/31 10:57:07;;;;;;;63.92;31.15;;;32.20;96.70;;;;;;5025484;28;20454;-68
2023/08/31 10:59:45;;;;;;;38.72;22.38;;;32.10;97.20;;;;;;5015797;28;20033;-68
2023/08/31 11:02:41;;;;;;;48.67;20.58;;;32.10;96.90;;;;;;5015509;28;20032;-69
2023/08/31 11:05:14;;;;;;;38.35;21.98;;;32.00;96.90;;;;;;5014545;28;20034;-68
2023/08/31 11:07:43;;;;;;;41.40;20.40;;;31.90;97.10;;;;;;5023146;28;20041;-70
2023/08/31 11:10:14;;;;;;;32.13;18.88;;;31.80;97.10;;;;;;5033803;28;20517;-70
2023/08/31 11:12:43;;;;;;;33.17;20.02;;;31.80;97.80;;;;;;5033739;28;20057;-67
2023/08/31 11:15:13;;;;;;;35.20;22.10;;;31.80;97.40;;;;;;5024244;28;20448;-67
2023/08/31 11:17:44;;;;;;;39.35;20.30;;;31.80;97.50;;;;;;5024445;28;20356;-71
2023/08/31 11:20:16;;;;;;;27.83;17.30;;;31.70;98.20;;;;;;5032299;28;20056;-69
2023/08/31 11:22:45;;;;;;;30.52;18.88;;;31.70;98.30;;;;;;5025843;28;20029;-71
2023/08/31 11:25:14;;;;;;;29.75;18.60;;;31.60;98.50;;;;;;5030555;28;20044;-68
2023/08/31 11:27:41;;;;;;;36.78;21.15;;;31.60;99.00;;;;;;5033447;28;20022;-69
2023/08/31 11:30:15;;;;;;;39.28;20.52;;;31.60;99.10;;;;;;5022433;28;20030;-68
2023/08/31 11:32:50;;;;;;;32.35;19.58;;;31.60;99.60;;;;;;5033403;28;20425;-69
2023/08/31 11:35:17;;;;;;;35.05;19.08;;;31.60;99.70;;;;;;5031242;28;20052;-67
2023/08/31 11:37:45;;;;;;;34.45;19.08;;;31.50;99.50;;;;;;5033282;28;20453;-68
2023/08/31 11:40:14;;;;;;;33.22;18.58;;;31.50;99.70;;;;;;5022375;28;20060;-68
2023/08/31 11:42:41;;;;;;;38.05;18.75;;;31.40;99.90;;;;;;5033285;28;20053;-72
2023/08/31 11:45:09;;;;;;;34.25;18.65;;;31.40;99.90;;;;;;5031743;28;20057;-67
2023/08/31 11:47:36;;;;;;;41.88;20.33;;;31.30;99.90;;;;;;5032934;28;20554;-68
2023/08/31 11:50:04;;;;;;;32.58;18.50;;;31.20;99.90;;;;;;5033053;28;20057;-67
2023/08/31 11:52:34;;;;;;;37.55;18.50;;;31.10;99.90;;;;;;5032722;28;20017;-67
2023/08/31 11:55:00;;;;;;;31.13;16.73;;;31.10;99.90;;;;;;5032875;28;20056;-69
2023/08/31 11:57:30;;;;;;;28.05;16.33;;;31.00;99.90;;;;;;5032847;28;20128;-70
2023/08/31 11:59:57;;;;;;;30.88;17.13;;;30.90;99.90;;;;;;5023093;28;20021;-64
2023/08/31 12:02:23;;;;;;;30.17;17.30;;;30.90;99.90;;;;;;5032677;28;20025;-65
2023/08/31 12:04:50;;;;;;;31.77;17.30;;;30.90;99.90;;;;;;5027913;28;20026;-66
2023/08/31 12:07:20;;;;;;;30.05;17.92;;;30.80;99.90;;;;;;5028888;28;20466;-67
2023/08/31 12:09:46;;;;;;;30.73;18.48;;;30.80;99.90;;;;;;5033232;28;20096;-66
2023/08/31 12:12:20;;;;;;;38.72;17.83;;;30.80;99.90;;;;;;5030693;28;20017;-67
2023/08/31 12:14:46;;;;;;;38.03;18.27;;;30.70;99.90;;;;;;5033278;28;20053;-67
2023/08/31 12:17:13;;;;;;;32.92;17.98;;;30.70;99.90;;;;;;5032263;28;20018;-67
2023/08/31 12:19:40;;;;;;;31.10;18.70;;;30.70;99.90;;;;;;5031435;28;20025;-67